createdAt,value
2018-12-16T00:00:33.556Z,999.81
2018-12-16T00:01:33.508Z,999.77
2018-12-16T00:02:33.497Z,999.82
2018-12-16T00:03:33.435Z,999.82
2018-12-16T00:04:33.398Z,999.80
2018-12-16T00:05:33.373Z,999.86
2018-12-16T00:06:33.352Z,999.84
2018-12-16T00:07:33.326Z,999.80
2018-12-16T00:08:33.302Z,999.76
2018-12-16T00:09:33.281Z,999.76
2018-12-16T00:10:33.246Z,999.81
2018-12-16T00:11:33.194Z,999.81
2018-12-16T00:12:33.170Z,999.77
2018-12-16T00:13:33.143Z,999.80
2018-12-16T00:14:33.173Z,999.79
2018-12-16T00:15:33.085Z,999.78
2018-12-16T00:16:33.061Z,999.81
2018-12-16T00:17:33.059Z,999.75
2018-12-16T00:18:33.004Z,999.77
2018-12-16T00:19:33.026Z,999.70
2018-12-16T00:20:32.973Z,999.80
2018-12-16T00:21:32.932Z,999.79
2018-12-16T00:22:32.886Z,999.73
2018-12-16T00:23:32.897Z,999.75
2018-12-16T00:24:32.894Z,999.74
2018-12-16T00:25:32.809Z,999.75
2018-12-16T00:26:32.770Z,999.72
2018-12-16T00:27:32.758Z,999.70
2018-12-16T00:28:32.724Z,999.68
2018-12-16T00:29:32.700Z,999.64
2018-12-16T00:30:32.691Z,999.57
2018-12-16T00:31:32.643Z,999.54
2018-12-16T00:32:32.639Z,999.53
2018-12-16T00:33:32.610Z,999.49
2018-12-16T00:34:32.585Z,999.38
2018-12-16T00:35:32.526Z,999.32
2018-12-16T00:36:32.512Z,999.23
2018-12-16T00:37:32.489Z,999.29
2018-12-16T00:38:32.488Z,999.17
2018-12-16T00:39:32.416Z,999.21
2018-12-16T00:40:32.406Z,999.23
2018-12-16T00:41:32.525Z,999.13
2018-12-16T00:42:32.393Z,999.16
2018-12-16T00:43:32.316Z,999.07
2018-12-16T00:44:32.264Z,999.08
2018-12-16T00:45:32.281Z,999.00
2018-12-16T00:46:32.261Z,999.02
2018-12-16T00:47:32.184Z,998.96
2018-12-16T00:48:32.173Z,998.96
2018-12-16T00:49:32.172Z,998.97
2018-12-16T00:50:32.100Z,998.98
2018-12-16T00:51:32.079Z,998.97
2018-12-16T00:52:36.505Z,998.89
2018-12-16T00:53:32.020Z,998.91
2018-12-16T00:54:32.021Z,998.90
2018-12-16T00:55:32.000Z,998.89
2018-12-16T00:56:31.968Z,998.81
2018-12-16T00:57:31.962Z,998.80
2018-12-16T00:58:31.904Z,998.74
2018-12-16T00:59:31.868Z,998.73
2018-12-16T01:00:31.827Z,998.80
2018-12-16T01:01:31.816Z,998.86
2018-12-16T01:02:31.778Z,998.71
2018-12-16T01:03:31.734Z,998.88
2018-12-16T01:04:31.710Z,998.81
2018-12-16T01:05:31.730Z,998.81
2018-12-16T01:06:31.653Z,998.81
2018-12-16T01:07:31.628Z,998.84
2018-12-16T01:08:31.596Z,998.84
2018-12-16T01:09:31.567Z,998.86
2018-12-16T01:10:31.558Z,998.82
2018-12-16T01:11:31.521Z,998.83
2018-12-16T01:12:31.505Z,998.82
2018-12-16T01:13:31.458Z,998.70
2018-12-16T01:14:31.448Z,998.73
2018-12-16T01:15:31.403Z,998.74
2018-12-16T01:16:31.383Z,998.68
2018-12-16T01:17:31.367Z,998.70
2018-12-16T01:18:31.315Z,998.69
2018-12-16T01:19:31.336Z,998.65
2018-12-16T01:20:31.289Z,998.62
2018-12-16T01:21:31.241Z,998.60
2018-12-16T01:22:31.225Z,998.64
2018-12-16T01:23:31.186Z,998.60
2018-12-16T01:24:31.159Z,998.64
2018-12-16T01:25:31.193Z,998.59
2018-12-16T01:26:31.093Z,998.66
2018-12-16T01:27:31.086Z,998.67
2018-12-16T01:28:31.044Z,998.59
2018-12-16T01:29:31.036Z,998.52
2018-12-16T01:30:30.992Z,998.57
2018-12-16T01:31:31.004Z,998.59
2018-12-16T01:32:30.954Z,998.52
2018-12-16T01:33:30.935Z,998.58
2018-12-16T01:34:30.895Z,998.51
2018-12-16T01:35:30.837Z,998.49
2018-12-16T01:36:30.850Z,998.49
2018-12-16T01:37:30.790Z,998.46
2018-12-16T01:38:30.776Z,998.50
2018-12-16T01:39:30.757Z,998.44
2018-12-16T01:40:30.728Z,998.43
2018-12-16T01:41:30.682Z,998.40
2018-12-16T01:42:30.649Z,998.35
2018-12-16T01:43:30.628Z,998.38
2018-12-16T01:44:30.595Z,998.31
2018-12-16T01:45:30.559Z,998.25
2018-12-16T01:46:30.560Z,998.24
2018-12-16T01:47:30.534Z,998.21
2018-12-16T01:48:30.503Z,998.33
2018-12-16T01:49:30.485Z,998.26
2018-12-16T01:50:30.424Z,998.30
2018-12-16T01:51:30.456Z,998.24
2018-12-16T01:52:30.387Z,998.28
2018-12-16T01:53:30.347Z,998.25
2018-12-16T01:54:30.330Z,998.26
2018-12-16T01:55:30.300Z,998.18
2018-12-16T01:56:30.257Z,998.18
2018-12-16T01:57:30.328Z,998.19
2018-12-16T01:58:30.233Z,998.18
2018-12-16T01:59:30.166Z,998.18
2018-12-16T02:00:30.151Z,998.12
2018-12-16T02:01:30.199Z,998.16
2018-12-16T02:02:30.132Z,998.10
2018-12-16T02:03:30.148Z,998.15
2018-12-16T02:04:30.050Z,998.16
2018-12-16T02:05:30.007Z,998.00
2018-12-16T02:06:30.000Z,998.07
2018-12-16T02:07:29.989Z,998.08
2018-12-16T02:08:29.938Z,998.07
2018-12-16T02:09:29.974Z,998.07
2018-12-16T02:10:29.887Z,998.01
2018-12-16T02:11:29.850Z,998.09
2018-12-16T02:12:29.850Z,997.98
2018-12-16T02:13:29.820Z,998.05
2018-12-16T02:14:29.772Z,998.05
2018-12-16T02:15:29.758Z,997.99
2018-12-16T02:16:29.723Z,997.94
2018-12-16T02:17:29.744Z,997.88
2018-12-16T02:18:29.647Z,997.85
2018-12-16T02:19:29.674Z,997.85
2018-12-16T02:20:29.601Z,997.76
2018-12-16T02:21:29.556Z,997.76
2018-12-16T02:22:29.546Z,997.68
2018-12-16T02:23:29.506Z,997.68
2018-12-16T02:24:29.492Z,997.58
2018-12-16T02:25:29.464Z,997.57
2018-12-16T02:26:29.430Z,997.64
2018-12-16T02:27:29.412Z,997.57
2018-12-16T02:28:29.381Z,997.57
2018-12-16T02:29:29.339Z,997.57
2018-12-16T02:30:29.391Z,997.52
2018-12-16T02:31:29.306Z,997.50
2018-12-16T02:32:29.282Z,997.53
2018-12-16T02:33:29.257Z,997.61
2018-12-16T02:34:29.201Z,997.63
2018-12-16T02:35:29.175Z,997.52
2018-12-16T02:36:29.160Z,997.55
2018-12-16T02:37:29.137Z,997.56
2018-12-16T02:38:29.114Z,997.60
2018-12-16T02:39:29.076Z,997.53
2018-12-16T02:40:29.030Z,997.55
2018-12-16T02:41:29.001Z,997.50
2018-12-16T02:42:28.999Z,997.51
2018-12-16T02:43:28.949Z,997.41
2018-12-16T02:44:28.919Z,997.39
2018-12-16T02:45:28.901Z,997.36
2018-12-16T02:46:28.870Z,997.27
2018-12-16T02:47:28.841Z,997.23
2018-12-16T02:48:28.824Z,997.23
2018-12-16T02:49:28.836Z,997.23
2018-12-16T02:50:28.789Z,997.30
2018-12-16T02:51:28.723Z,997.37
2018-12-16T02:52:28.717Z,997.27
2018-12-16T02:53:28.727Z,997.27
2018-12-16T02:54:28.654Z,997.30
2018-12-16T02:55:28.659Z,997.29
2018-12-16T02:56:28.606Z,997.30
2018-12-16T02:57:28.608Z,997.23
2018-12-16T02:58:28.540Z,997.26
2018-12-16T02:59:28.518Z,997.23
2018-12-16T03:00:28.485Z,997.25
2018-12-16T03:01:28.472Z,997.18
2018-12-16T03:02:28.450Z,997.11
2018-12-16T03:03:28.396Z,997.10
2018-12-16T03:04:28.382Z,997.07
2018-12-16T03:05:28.354Z,996.99
2018-12-16T03:06:28.307Z,997.06
2018-12-16T03:07:28.273Z,997.08
2018-12-16T03:08:28.319Z,997.09
2018-12-16T03:09:28.215Z,997.06
2018-12-16T03:10:28.223Z,997.02
2018-12-16T03:11:28.194Z,997.08
2018-12-16T03:12:28.168Z,997.05
2018-12-16T03:13:28.118Z,996.98
2018-12-16T03:14:28.090Z,997.02
2018-12-16T03:15:28.052Z,996.95
2018-12-16T03:16:28.044Z,996.95
2018-12-16T03:17:28.014Z,996.94
2018-12-16T03:18:27.967Z,996.89
2018-12-16T03:19:27.958Z,996.90
2018-12-16T03:20:27.913Z,996.86
2018-12-16T03:21:27.910Z,996.84
2018-12-16T03:22:27.858Z,996.82
2018-12-16T03:23:27.849Z,996.81
2018-12-16T03:24:27.831Z,996.82
2018-12-16T03:25:27.835Z,996.80
2018-12-16T03:26:27.756Z,996.84
2018-12-16T03:27:27.730Z,996.76
2018-12-16T03:28:27.727Z,996.74
2018-12-16T03:29:27.680Z,996.73
2018-12-16T03:30:27.656Z,996.70
2018-12-16T03:31:27.619Z,996.68
2018-12-16T03:32:27.596Z,996.67
2018-12-16T03:33:27.565Z,996.63
2018-12-16T03:34:27.561Z,996.65
2018-12-16T03:35:27.498Z,996.61
2018-12-16T03:36:27.527Z,996.61
2018-12-16T03:37:27.511Z,996.51
2018-12-16T03:38:27.422Z,996.57
2018-12-16T03:39:27.382Z,996.60
2018-12-16T03:40:27.384Z,996.63
2018-12-16T03:41:27.350Z,996.68
2018-12-16T03:42:27.332Z,996.66
2018-12-16T03:43:27.272Z,996.58
2018-12-16T03:44:27.251Z,996.60
2018-12-16T03:45:27.215Z,996.60
2018-12-16T03:46:27.188Z,996.52
2018-12-16T03:47:27.163Z,996.52
2018-12-16T03:48:27.175Z,996.54
2018-12-16T03:49:27.106Z,996.54
2018-12-16T03:50:27.080Z,996.49
2018-12-16T03:51:27.072Z,996.47
2018-12-16T03:52:27.016Z,996.51
2018-12-16T03:53:26.992Z,996.49
2018-12-16T03:54:26.977Z,996.56
2018-12-16T03:55:26.946Z,996.50
2018-12-16T03:56:26.948Z,996.44
2018-12-16T03:57:26.892Z,996.46
2018-12-16T03:58:26.887Z,996.46
2018-12-16T03:59:26.831Z,996.39
2018-12-16T04:00:26.836Z,996.43
2018-12-16T04:01:26.833Z,996.38
2018-12-16T04:02:26.750Z,996.34
2018-12-16T04:03:26.739Z,996.30
2018-12-16T04:04:26.696Z,996.36
2018-12-16T04:05:26.692Z,996.32
2018-12-16T04:06:26.651Z,996.32
2018-12-16T04:07:26.604Z,996.27
2018-12-16T04:08:26.613Z,996.23
2018-12-16T04:09:26.573Z,996.27
2018-12-16T04:10:26.535Z,996.31
2018-12-16T04:11:26.515Z,996.34
2018-12-16T04:12:26.503Z,996.34
2018-12-16T04:13:26.467Z,996.29
2018-12-16T04:14:26.432Z,996.31
2018-12-16T04:15:26.391Z,996.30
2018-12-16T04:16:26.385Z,996.31
2018-12-16T04:17:26.402Z,996.30
2018-12-16T04:18:26.332Z,996.31
2018-12-16T04:19:26.297Z,996.32
2018-12-16T04:20:26.249Z,996.32
2018-12-16T04:21:26.235Z,996.31
2018-12-16T04:22:26.189Z,996.22
2018-12-16T04:23:27.579Z,996.24
2018-12-16T04:24:26.138Z,996.25
2018-12-16T04:25:26.116Z,996.18
2018-12-16T04:26:26.077Z,996.24
2018-12-16T04:27:26.064Z,996.22
2018-12-16T04:28:26.075Z,996.21
2018-12-16T04:29:26.009Z,996.22
2018-12-16T04:30:25.975Z,996.18
2018-12-16T04:31:25.933Z,996.20
2018-12-16T04:32:25.911Z,996.26
2018-12-16T04:33:25.935Z,996.21
2018-12-16T04:34:25.921Z,996.27
2018-12-16T04:35:25.821Z,996.32
2018-12-16T04:36:25.818Z,996.30
2018-12-16T04:37:25.797Z,996.28
2018-12-16T04:38:25.815Z,996.26
2018-12-16T04:39:25.725Z,996.23
2018-12-16T04:40:25.701Z,996.25
2018-12-16T04:41:25.667Z,996.35
2018-12-16T04:42:25.641Z,996.32
2018-12-16T04:43:25.597Z,996.36
2018-12-16T04:44:25.581Z,996.31
2018-12-16T04:45:25.612Z,996.31
2018-12-16T04:46:25.527Z,996.29
2018-12-16T04:47:25.493Z,996.18
2018-12-16T04:48:25.462Z,996.27
2018-12-16T04:49:25.465Z,996.28
2018-12-16T04:50:25.435Z,996.28
2018-12-16T04:51:25.444Z,996.24
2018-12-16T04:52:25.365Z,996.27
2018-12-16T04:53:25.347Z,996.24
2018-12-16T04:54:25.330Z,996.22
2018-12-16T04:55:25.313Z,996.30
2018-12-16T04:56:25.266Z,996.30
2018-12-16T04:57:25.237Z,996.39
2018-12-16T04:58:25.212Z,996.35
2018-12-16T04:59:25.176Z,996.37
2018-12-16T05:00:25.205Z,996.31
2018-12-16T05:01:25.128Z,996.28
2018-12-16T05:02:25.094Z,996.22
2018-12-16T05:03:25.052Z,996.13
2018-12-16T05:04:25.012Z,996.21
2018-12-16T05:05:25.022Z,996.17
2018-12-16T05:06:25.042Z,996.17
2018-12-16T05:07:24.979Z,996.23
2018-12-16T05:08:24.918Z,996.24
2018-12-16T05:09:24.898Z,996.27
2018-12-16T05:10:24.875Z,996.27
2018-12-16T05:11:24.816Z,996.29
2018-12-16T05:12:24.858Z,996.24
2018-12-16T05:13:24.797Z,996.21
2018-12-16T05:14:24.746Z,996.15
2018-12-16T05:15:24.725Z,996.14
2018-12-16T05:16:24.717Z,996.13
2018-12-16T05:17:24.652Z,996.10
2018-12-16T05:18:24.707Z,996.07
2018-12-16T05:19:24.613Z,996.03
2018-12-16T05:20:24.606Z,995.99
2018-12-16T05:21:24.557Z,995.99
2018-12-16T05:22:24.516Z,996.04
2018-12-16T05:23:24.505Z,996.00
2018-12-16T05:24:24.477Z,996.01
2018-12-16T05:25:24.435Z,996.07
2018-12-16T05:26:24.407Z,995.98
2018-12-16T05:27:24.402Z,995.97
2018-12-16T05:28:24.346Z,995.97
2018-12-16T05:29:24.318Z,996.00
2018-12-16T05:30:24.296Z,995.99
2018-12-16T05:31:24.262Z,996.05
2018-12-16T05:32:24.273Z,996.03
2018-12-16T05:33:24.227Z,995.99
2018-12-16T05:34:24.208Z,995.97
2018-12-16T05:35:24.150Z,995.95
2018-12-16T05:36:24.134Z,995.97
2018-12-16T05:37:24.126Z,995.94
2018-12-16T05:38:24.102Z,995.91
2018-12-16T05:39:24.079Z,995.90
2018-12-16T05:40:24.039Z,995.83
2018-12-16T05:41:24.016Z,995.85
2018-12-16T05:42:23.993Z,995.87
2018-12-16T05:43:23.926Z,995.87
2018-12-16T05:44:24.040Z,995.96
2018-12-16T05:45:23.909Z,995.85
2018-12-16T05:46:23.854Z,995.90
2018-12-16T05:47:23.823Z,995.89
2018-12-16T05:48:23.793Z,995.88
2018-12-16T05:49:23.769Z,995.91
2018-12-16T05:50:23.725Z,995.94
2018-12-16T05:51:23.718Z,995.93
2018-12-16T05:52:23.681Z,995.99
2018-12-16T05:53:23.652Z,995.91
2018-12-16T05:54:23.709Z,995.88
2018-12-16T05:55:23.738Z,995.90
2018-12-16T05:56:23.582Z,995.92
2018-12-16T05:57:23.578Z,995.89
2018-12-16T05:58:23.518Z,995.92
2018-12-16T05:59:23.470Z,995.88
2018-12-16T06:00:23.489Z,995.83
2018-12-16T06:01:23.509Z,995.87
2018-12-16T06:02:23.442Z,995.87
2018-12-16T06:03:23.399Z,995.86
2018-12-16T06:04:23.364Z,995.92
2018-12-16T06:05:23.350Z,995.89
2018-12-16T06:06:23.286Z,995.86
2018-12-16T06:07:23.251Z,995.84
2018-12-16T06:08:23.224Z,995.90
2018-12-16T06:09:23.281Z,995.92
2018-12-16T06:10:23.180Z,995.90
2018-12-16T06:11:23.160Z,995.90
2018-12-16T06:12:23.129Z,995.87
2018-12-16T06:13:23.109Z,995.88
2018-12-16T06:14:23.057Z,995.91
2018-12-16T06:15:23.023Z,995.96
2018-12-16T06:16:22.995Z,995.87
2018-12-16T06:17:23.069Z,995.93
2018-12-16T06:18:22.938Z,995.94
2018-12-16T06:19:22.951Z,995.97
2018-12-16T06:20:22.884Z,995.92
2018-12-16T06:21:22.921Z,995.87
2018-12-16T06:22:22.827Z,995.89
2018-12-16T06:23:22.799Z,995.91
2018-12-16T06:24:22.780Z,995.84
2018-12-16T06:25:22.768Z,995.86
2018-12-16T06:26:22.758Z,995.86
2018-12-16T06:27:22.712Z,995.84
2018-12-16T06:28:22.659Z,995.78
2018-12-16T06:29:22.657Z,995.75
2018-12-16T06:30:22.602Z,995.76
2018-12-16T06:31:22.608Z,995.78
2018-12-16T06:32:22.550Z,995.77
2018-12-16T06:33:22.585Z,995.70
2018-12-16T06:34:22.559Z,995.68
2018-12-16T06:35:22.469Z,995.76
2018-12-16T06:36:22.433Z,995.77
2018-12-16T06:37:22.457Z,995.70
2018-12-16T06:38:22.402Z,995.61
2018-12-16T06:39:22.394Z,995.60
2018-12-16T06:40:22.361Z,995.61
2018-12-16T06:41:22.337Z,995.59
2018-12-16T06:42:22.278Z,995.68
2018-12-16T06:43:22.241Z,995.60
2018-12-16T06:44:22.210Z,995.59
2018-12-16T06:45:22.187Z,995.61
2018-12-16T06:46:22.159Z,995.61
2018-12-16T06:47:22.129Z,995.64
2018-12-16T06:48:22.124Z,995.63
2018-12-16T06:49:22.109Z,995.62
2018-12-16T06:50:22.082Z,995.67
2018-12-16T06:51:22.015Z,995.65
2018-12-16T06:52:22.012Z,995.67
2018-12-16T06:53:22.013Z,995.68
2018-12-16T06:54:21.950Z,995.72
2018-12-16T06:55:21.909Z,995.75
2018-12-16T06:56:21.875Z,995.63
2018-12-16T06:57:21.854Z,995.61
2018-12-16T06:58:21.848Z,995.65
2018-12-16T06:59:21.791Z,995.64
2018-12-16T07:00:21.781Z,995.69
2018-12-16T07:01:21.780Z,995.74
2018-12-16T07:02:21.767Z,995.66
2018-12-16T07:03:21.716Z,995.72
2018-12-16T07:04:21.669Z,995.65
2018-12-16T07:05:21.782Z,995.60
2018-12-16T07:06:21.591Z,995.74
2018-12-16T07:07:21.573Z,995.69
2018-12-16T07:08:21.569Z,995.67
2018-12-16T07:09:21.506Z,995.71
2018-12-16T07:10:21.533Z,995.72
2018-12-16T07:11:21.490Z,995.74
2018-12-16T07:12:21.462Z,995.71
2018-12-16T07:13:21.448Z,995.70
2018-12-16T07:14:21.419Z,995.69
2018-12-16T07:15:21.353Z,995.75
2018-12-16T07:16:21.335Z,995.71
2018-12-16T07:17:21.329Z,995.70
2018-12-16T07:18:21.282Z,995.74
2018-12-16T07:19:21.229Z,995.73
2018-12-16T07:20:21.220Z,995.70
2018-12-16T07:21:21.173Z,995.76
2018-12-16T07:22:21.155Z,995.69
2018-12-16T07:23:21.119Z,995.67
2018-12-16T07:24:21.132Z,995.67
2018-12-16T07:25:21.078Z,995.65
2018-12-16T07:26:21.067Z,995.68
2018-12-16T07:27:21.004Z,995.70
2018-12-16T07:28:21.107Z,995.69
2018-12-16T07:29:20.974Z,995.68
2018-12-16T07:30:20.985Z,995.72
2018-12-16T07:31:20.890Z,995.71
2018-12-16T07:32:20.904Z,995.70
2018-12-16T07:33:20.888Z,995.70
2018-12-16T07:34:20.817Z,995.73
2018-12-16T07:35:20.796Z,995.73
2018-12-16T07:36:20.761Z,995.74
2018-12-16T07:37:20.760Z,995.75
2018-12-16T07:38:20.777Z,995.78
2018-12-16T07:39:20.722Z,995.81
2018-12-16T07:40:20.691Z,995.84
2018-12-16T07:41:20.616Z,995.80
2018-12-16T07:42:20.709Z,995.81
2018-12-16T07:43:20.646Z,995.83
2018-12-16T07:44:20.619Z,995.85
2018-12-16T07:45:20.505Z,995.83
2018-12-16T07:46:20.500Z,995.86
2018-12-16T07:47:20.469Z,995.83
2018-12-16T07:48:20.456Z,995.82
2018-12-16T07:49:20.427Z,995.86
2018-12-16T07:50:20.407Z,995.89
2018-12-16T07:51:20.415Z,995.89
2018-12-16T07:52:20.326Z,995.92
2018-12-16T07:53:20.293Z,995.94
2018-12-16T07:54:20.305Z,996.00
2018-12-16T07:55:20.299Z,996.00
2018-12-16T07:56:20.219Z,996.04
2018-12-16T07:57:20.237Z,996.01
2018-12-16T07:58:20.175Z,996.01
2018-12-16T07:59:20.123Z,995.99
2018-12-16T08:00:20.115Z,996.05
2018-12-16T08:01:20.092Z,996.01
2018-12-16T08:02:20.100Z,996.02
2018-12-16T08:03:20.026Z,996.05
2018-12-16T08:04:19.973Z,996.11
2018-12-16T08:05:19.963Z,996.10
2018-12-16T08:06:19.939Z,996.09
2018-12-16T08:07:19.888Z,996.09
2018-12-16T08:08:19.856Z,996.10
2018-12-16T08:09:19.878Z,996.15
2018-12-16T08:10:19.860Z,996.25
2018-12-16T08:11:19.825Z,996.24
2018-12-16T08:12:19.757Z,996.27
2018-12-16T08:13:19.726Z,996.28
2018-12-16T08:14:19.699Z,996.25
2018-12-16T08:15:19.693Z,996.32
2018-12-16T08:16:19.650Z,996.31
2018-12-16T08:17:19.646Z,996.34
2018-12-16T08:18:19.732Z,996.27
2018-12-16T08:19:19.594Z,996.22
2018-12-16T08:20:19.545Z,996.36
2018-12-16T08:21:19.525Z,996.36
2018-12-16T08:22:19.506Z,996.37
2018-12-16T08:23:19.459Z,996.38
2018-12-16T08:24:23.053Z,996.31
2018-12-16T08:25:19.400Z,996.28
2018-12-16T08:26:19.430Z,996.31
2018-12-16T08:27:19.331Z,996.37
2018-12-16T08:28:19.310Z,996.36
2018-12-16T08:29:19.320Z,996.35
2018-12-16T08:30:19.253Z,996.36
2018-12-16T08:31:19.246Z,996.39
2018-12-16T08:32:19.204Z,996.41
2018-12-16T08:33:19.208Z,996.42
2018-12-16T08:34:19.162Z,996.42
2018-12-16T08:35:19.148Z,996.46
2018-12-16T08:36:19.092Z,996.41
2018-12-16T08:37:19.088Z,996.41
2018-12-16T08:38:19.058Z,996.42
2018-12-16T08:39:19.029Z,996.37
2018-12-16T08:40:19.008Z,996.39
2018-12-16T08:41:18.979Z,996.45
2018-12-16T08:42:18.927Z,996.41
2018-12-16T08:43:18.892Z,996.42
2018-12-16T08:44:18.865Z,996.37
2018-12-16T08:45:18.910Z,996.40
2018-12-16T08:46:18.847Z,996.39
2018-12-16T08:47:18.889Z,996.43
2018-12-16T08:48:18.766Z,996.44
2018-12-16T08:49:18.746Z,996.54
2018-12-16T08:50:18.706Z,996.55
2018-12-16T08:51:18.673Z,996.52
2018-12-16T08:52:18.665Z,996.55
2018-12-16T08:53:18.651Z,996.58
2018-12-16T08:54:18.588Z,996.58
2018-12-16T08:55:18.686Z,996.57
2018-12-16T08:56:18.558Z,996.55
2018-12-16T08:57:18.505Z,996.59
2018-12-16T08:58:18.528Z,996.58
2018-12-16T08:59:18.442Z,996.55
2018-12-16T09:00:18.418Z,996.60
2018-12-16T09:01:18.417Z,996.60
2018-12-16T09:02:18.421Z,996.56
2018-12-16T09:03:18.351Z,996.58
2018-12-16T09:04:18.338Z,996.58
2018-12-16T09:05:18.293Z,996.65
2018-12-16T09:06:18.317Z,996.60
2018-12-16T09:07:18.238Z,996.65
2018-12-16T09:08:18.194Z,996.64
2018-12-16T09:09:18.191Z,996.65
2018-12-16T09:10:18.167Z,996.66
2018-12-16T09:11:18.117Z,996.63
2018-12-16T09:12:19.459Z,996.57
2018-12-16T09:13:18.062Z,996.60
2018-12-16T09:14:18.028Z,996.62
2018-12-16T09:15:18.003Z,996.62
2018-12-16T09:16:18.006Z,996.57
2018-12-16T09:17:17.993Z,996.64
2018-12-16T09:18:17.943Z,996.61
2018-12-16T09:19:17.919Z,996.60
2018-12-16T09:20:17.864Z,996.57
2018-12-16T09:21:17.835Z,996.62
2018-12-16T09:22:17.812Z,996.62
2018-12-16T09:23:17.818Z,996.58
2018-12-16T09:24:17.759Z,996.59
2018-12-16T09:25:17.767Z,996.61
2018-12-16T09:26:17.716Z,996.59
2018-12-16T09:27:17.677Z,996.55
2018-12-16T09:28:17.648Z,996.52
2018-12-16T09:29:19.337Z,996.55
2018-12-16T09:30:17.617Z,996.54
2018-12-16T09:31:17.590Z,996.52
2018-12-16T09:32:17.599Z,996.50
2018-12-16T09:33:17.506Z,996.53
2018-12-16T09:34:17.554Z,996.55
2018-12-16T09:35:17.452Z,996.59
2018-12-16T09:36:17.440Z,996.55
2018-12-16T09:37:17.405Z,996.57
2018-12-16T09:38:17.395Z,996.61
2018-12-16T09:39:17.397Z,996.62
2018-12-16T09:40:17.358Z,996.62
2018-12-16T09:41:17.285Z,996.60
2018-12-16T09:42:17.285Z,996.62
2018-12-16T09:43:17.227Z,996.64
2018-12-16T09:44:17.224Z,996.69
2018-12-16T09:45:17.173Z,996.69
2018-12-16T09:46:17.143Z,996.71
2018-12-16T09:47:17.131Z,996.73
2018-12-16T09:48:17.114Z,996.75
2018-12-16T09:49:17.059Z,996.71
2018-12-16T09:50:17.052Z,996.71
2018-12-16T09:51:17.001Z,996.73
2018-12-16T09:52:17.009Z,996.68
2018-12-16T09:53:16.953Z,996.70
2018-12-16T09:54:16.927Z,996.70
2018-12-16T09:55:16.899Z,996.70
2018-12-16T09:56:16.948Z,996.70
2018-12-16T09:57:16.855Z,996.66
2018-12-16T09:58:16.853Z,996.69
2018-12-16T09:59:16.800Z,996.69
2018-12-16T10:00:16.794Z,996.63
2018-12-16T10:01:16.759Z,996.61
2018-12-16T10:02:16.705Z,996.53
2018-12-16T10:03:16.708Z,996.52
2018-12-16T10:04:16.676Z,996.54
2018-12-16T10:05:16.646Z,996.51
2018-12-16T10:06:16.599Z,996.48
2018-12-16T10:07:16.596Z,996.48
2018-12-16T10:08:16.579Z,996.47
2018-12-16T10:09:16.518Z,996.49
2018-12-16T10:10:16.526Z,996.44
2018-12-16T10:11:16.459Z,996.50
2018-12-16T10:12:16.442Z,996.51
2018-12-16T10:13:16.462Z,996.49
2018-12-16T10:14:16.395Z,996.48
2018-12-16T10:15:16.361Z,996.48
2018-12-16T10:16:16.329Z,996.48
2018-12-16T10:17:16.327Z,996.54
2018-12-16T10:18:16.304Z,996.54
2018-12-16T10:19:16.244Z,996.56
2018-12-16T10:20:16.217Z,996.62
2018-12-16T10:21:16.188Z,996.66
2018-12-16T10:22:16.172Z,996.68
2018-12-16T10:23:16.131Z,996.74
2018-12-16T10:24:16.112Z,996.74
2018-12-16T10:25:16.080Z,996.66
2018-12-16T10:26:16.115Z,996.71
2018-12-16T10:27:16.023Z,996.70
2018-12-16T10:28:16.022Z,996.68
2018-12-16T10:29:15.982Z,996.69
2018-12-16T10:30:15.941Z,996.65
2018-12-16T10:31:15.936Z,996.66
2018-12-16T10:32:15.918Z,996.65
2018-12-16T10:33:15.874Z,996.64
2018-12-16T10:34:15.920Z,996.63
2018-12-16T10:35:24.466Z,996.61
2018-12-16T10:36:15.800Z,996.63
2018-12-16T10:37:15.750Z,996.62
2018-12-16T10:38:15.743Z,996.62
2018-12-16T10:39:15.719Z,996.60
2018-12-16T10:40:15.706Z,996.60
2018-12-16T10:41:15.648Z,996.59
2018-12-16T10:42:15.633Z,996.61
2018-12-16T10:43:15.589Z,996.62
2018-12-16T10:44:15.590Z,996.59
2018-12-16T10:45:15.558Z,996.60
2018-12-16T10:46:15.508Z,996.59
2018-12-16T10:47:15.577Z,996.58
2018-12-16T10:48:15.485Z,996.59
2018-12-16T10:49:15.542Z,996.53
2018-12-16T10:50:15.415Z,996.56
2018-12-16T10:51:15.382Z,996.53
2018-12-16T10:52:15.362Z,996.56
2018-12-16T10:53:15.319Z,996.52
2018-12-16T10:54:15.367Z,996.51
2018-12-16T10:55:15.267Z,996.50
2018-12-16T10:56:15.236Z,996.48
2018-12-16T10:57:15.211Z,996.53
2018-12-16T10:58:15.227Z,996.54
2018-12-16T10:59:15.154Z,996.56
2018-12-16T11:00:15.174Z,996.59
2018-12-16T11:01:15.118Z,996.54
2018-12-16T11:02:15.082Z,996.55
2018-12-16T11:03:15.060Z,996.54
2018-12-16T11:04:15.059Z,996.58
2018-12-16T11:05:15.027Z,996.55
2018-12-16T11:06:14.990Z,996.55
2018-12-16T11:07:15.125Z,996.56
2018-12-16T11:08:14.992Z,996.56
2018-12-16T11:09:14.955Z,996.57
2018-12-16T11:10:14.881Z,996.60
2018-12-16T11:11:14.878Z,996.57
2018-12-16T11:12:14.808Z,996.54
2018-12-16T11:13:14.820Z,996.56
2018-12-16T11:14:14.800Z,996.53
2018-12-16T11:15:14.829Z,996.53
2018-12-16T11:16:14.708Z,996.55
2018-12-16T11:17:14.707Z,996.51
2018-12-16T11:18:14.649Z,996.48
2018-12-16T11:19:14.650Z,996.44
2018-12-16T11:20:14.622Z,996.47
2018-12-16T11:21:14.569Z,996.45
2018-12-16T11:22:14.585Z,996.44
2018-12-16T11:23:14.542Z,996.44
2018-12-16T11:24:14.490Z,996.40
2018-12-16T11:25:14.460Z,996.43
2018-12-16T11:26:14.429Z,996.45
2018-12-16T11:27:14.559Z,996.42
2018-12-16T11:28:14.384Z,996.43
2018-12-16T11:29:14.363Z,996.40
2018-12-16T11:30:14.330Z,996.41
2018-12-16T11:31:14.315Z,996.40
2018-12-16T11:32:14.277Z,996.42
2018-12-16T11:33:14.258Z,996.38
2018-12-16T11:34:14.233Z,996.39
2018-12-16T11:35:14.246Z,996.39
2018-12-16T11:36:14.195Z,996.40
2018-12-16T11:37:14.173Z,996.40
2018-12-16T11:38:14.192Z,996.38
2018-12-16T11:39:14.121Z,996.34
2018-12-16T11:40:14.066Z,996.33
2018-12-16T11:41:14.083Z,996.33
2018-12-16T11:42:14.032Z,996.35
2018-12-16T11:43:13.984Z,996.36
2018-12-16T11:44:13.976Z,996.35
2018-12-16T11:45:13.928Z,996.34
2018-12-16T11:46:13.900Z,996.35
2018-12-16T11:47:13.910Z,996.36
2018-12-16T11:48:13.860Z,996.42
2018-12-16T11:49:13.853Z,996.42
2018-12-16T11:50:13.846Z,996.39
2018-12-16T11:51:13.805Z,996.37
2018-12-16T11:52:13.739Z,996.36
2018-12-16T11:53:13.727Z,996.37
2018-12-16T11:54:13.690Z,996.39
2018-12-16T11:55:13.672Z,996.34
2018-12-16T11:56:13.902Z,996.35
2018-12-16T11:57:13.642Z,996.37
2018-12-16T11:58:13.617Z,996.38
2018-12-16T11:59:13.575Z,996.36
2018-12-16T12:00:13.570Z,996.39
2018-12-16T12:01:13.500Z,996.43
2018-12-16T12:02:13.493Z,996.40
2018-12-16T12:03:13.482Z,996.39
2018-12-16T12:05:46.570Z,996.42
2018-12-16T12:06:36.531Z,996.44
2018-12-16T12:08:59.552Z,996.30
2018-12-16T12:09:59.419Z,996.30
2018-12-16T12:10:59.403Z,996.31
2018-12-16T12:11:59.384Z,996.28
2018-12-16T12:12:59.380Z,996.28
2018-12-16T12:13:59.324Z,996.28
2018-12-16T12:14:59.330Z,996.28
2018-12-16T12:15:59.251Z,996.27
2018-12-16T12:16:59.268Z,996.29
2018-12-16T12:19:32.360Z,996.27
2018-12-16T12:21:55.369Z,996.30
2018-12-16T12:24:08.211Z,996.31
2018-12-16T12:26:30.255Z,996.28
2018-12-16T12:27:30.212Z,996.30
2018-12-16T12:29:53.237Z,996.27
2018-12-16T12:32:16.188Z,996.29
2018-12-16T12:34:51.274Z,996.25
2018-12-16T12:35:39.176Z,996.27
2018-12-16T12:36:39.217Z,996.22
2018-12-16T12:37:39.210Z,996.19
2018-12-16T12:38:39.151Z,996.22
2018-12-16T12:39:39.093Z,996.19
2018-12-16T12:40:39.042Z,996.20